createdAt,value
2023-03-30T00:01:04.478Z,55.66
2023-03-30T00:02:38.749Z,55.88
2023-03-30T00:04:12.714Z,55.66
2023-03-30T00:06:05.585Z,55.87
2023-03-30T00:07:47.379Z,55.32
2023-03-30T00:09:30.713Z,55.59
2023-03-30T00:10:55.839Z,55.69
2023-03-30T00:12:32.284Z,55.85
2023-03-30T00:14:17.835Z,56.01
2023-03-30T00:15:51.554Z,55.87
2023-03-30T00:17:13.048Z,56.06
2023-03-30T00:19:07.049Z,55.98
2023-03-30T00:20:29.000Z,56.26
2023-03-30T00:22:13.892Z,56.10
2023-03-30T00:23:56.023Z,56.11
2023-03-30T00:25:29.380Z,56.34
2023-03-30T00:27:03.228Z,56.38
2023-03-30T00:28:38.815Z,56.61
2023-03-30T00:30:24.025Z,56.59
2023-03-30T00:32:10.665Z,56.71
2023-03-30T00:33:49.743Z,56.69
2023-03-30T00:35:24.336Z,56.69
2023-03-30T00:37:05.354Z,56.78
2023-03-30T00:38:29.395Z,56.54
2023-03-30T00:39:53.107Z,56.54
2023-03-30T00:41:43.011Z,56.67
2023-03-30T00:43:16.308Z,56.81
2023-03-30T00:44:47.189Z,56.93
2023-03-30T00:46:40.551Z,56.72
2023-03-30T00:48:21.745Z,56.75
2023-03-30T00:49:55.326Z,56.69
2023-03-30T00:51:30.948Z,56.71
2023-03-30T00:53:17.974Z,56.84
2023-03-30T00:54:58.634Z,56.93
2023-03-30T00:56:40.121Z,56.76
2023-03-30T00:58:25.187Z,56.94
2023-03-30T01:00:01.718Z,57.05
2023-03-30T01:01:39.060Z,57.09
2023-03-30T01:03:24.633Z,57.05
2023-03-30T01:06:58.014Z,57.01
2023-03-30T01:08:45.521Z,57.35
2023-03-30T01:10:18.734Z,57.45
2023-03-30T01:11:40.444Z,57.25
2023-03-30T01:13:17.011Z,57.33
2023-03-30T01:14:51.485Z,57.35
2023-03-30T01:16:27.506Z,57.40
2023-03-30T01:18:12.424Z,57.47
2023-03-30T01:19:57.326Z,57.73
2023-03-30T01:21:50.451Z,57.90
2023-03-30T01:23:39.007Z,58.06
2023-03-30T01:25:22.391Z,57.97
2023-03-30T01:27:07.891Z,58.11
2023-03-30T01:28:43.653Z,58.28
2023-03-30T01:30:05.710Z,58.20
2023-03-30T01:31:46.203Z,58.37
2023-03-30T01:33:31.121Z,58.36
2023-03-30T01:35:11.008Z,58.58
2023-03-30T01:36:37.146Z,58.55
2023-03-30T01:38:03.975Z,58.80
2023-03-30T01:39:51.611Z,59.10
2023-03-30T01:41:36.878Z,58.94
2023-03-30T01:43:17.874Z,58.97
2023-03-30T01:44:53.997Z,59.04
2023-03-30T01:46:42.197Z,59.49
2023-03-30T01:48:18.628Z,59.43
2023-03-30T01:49:48.427Z,59.16
2023-03-30T01:51:23.852Z,59.49
2023-03-30T01:52:58.494Z,59.54
2023-03-30T01:54:34.081Z,59.56
2023-03-30T01:56:10.186Z,59.40
2023-03-30T01:57:55.622Z,59.33
2023-03-30T01:59:27.294Z,59.28
2023-03-30T02:01:04.272Z,59.42
2023-03-30T02:02:50.463Z,59.20
2023-03-30T02:04:35.954Z,59.38
2023-03-30T02:06:16.684Z,59.33
2023-03-30T02:08:02.499Z,59.44
2023-03-30T02:09:48.578Z,59.50
2023-03-30T02:11:24.556Z,59.54
2023-03-30T02:12:58.012Z,59.69
2023-03-30T02:14:33.640Z,59.95
2023-03-30T02:16:19.397Z,59.98
2023-03-30T02:17:54.633Z,60.06
2023-03-30T02:19:40.072Z,60.12
2023-03-30T02:21:24.831Z,60.29
2023-03-30T02:23:06.192Z,60.22
2023-03-30T02:24:36.314Z,60.24
2023-03-30T02:26:09.656Z,60.33
2023-03-30T02:27:36.829Z,60.45
2023-03-30T02:29:10.130Z,60.24
2023-03-30T02:30:55.266Z,60.06
2023-03-30T02:32:22.946Z,60.33
2023-03-30T02:33:59.189Z,60.23
2023-03-30T02:35:34.880Z,60.35
2023-03-30T02:36:57.056Z,60.37
2023-03-30T02:38:28.287Z,60.24
2023-03-30T02:40:08.859Z,60.31
2023-03-30T02:41:42.217Z,60.17
2023-03-30T02:43:03.937Z,60.47
2023-03-30T02:44:37.358Z,60.44
2023-03-30T02:46:18.538Z,60.45
2023-03-30T02:47:53.007Z,60.83
2023-03-30T02:49:38.098Z,60.90
2023-03-30T02:51:11.385Z,61.09
2023-03-30T02:53:05.182Z,60.72
2023-03-30T02:54:51.026Z,60.93
2023-03-30T02:56:12.673Z,60.76
2023-03-30T02:58:15.587Z,60.83
2023-03-30T03:00:08.772Z,60.67
2023-03-30T03:01:42.867Z,60.89
2023-03-30T03:03:21.805Z,61.01
2023-03-30T03:04:59.152Z,60.89
2023-03-30T03:06:55.746Z,60.88
2023-03-30T03:08:29.085Z,61.08
2023-03-30T03:10:13.945Z,61.09
2023-03-30T03:11:59.050Z,60.86
2023-03-30T03:13:48.644Z,61.07
2023-03-30T03:15:22.408Z,61.33
2023-03-30T03:17:28.750Z,61.23
2023-03-30T03:19:04.578Z,61.20
2023-03-30T03:20:50.396Z,60.96
2023-03-30T03:22:38.329Z,61.24
2023-03-30T03:24:19.800Z,61.18
2023-03-30T03:26:28.929Z,61.20
2023-03-30T03:28:04.790Z,61.34
2023-03-30T03:29:48.716Z,61.15
2023-03-30T03:31:22.107Z,61.63
2023-03-30T03:32:57.672Z,61.50
2023-03-30T03:34:33.675Z,61.56
2023-03-30T03:36:22.620Z,61.76
2023-03-30T03:38:11.676Z,61.88
2023-03-30T03:39:56.837Z,62.03
2023-03-30T03:41:50.398Z,61.85
2023-03-30T03:43:26.550Z,62.09
2023-03-30T03:45:15.864Z,61.91
2023-03-30T03:47:02.605Z,62.13
2023-03-30T03:48:24.745Z,61.89
2023-03-30T03:50:09.852Z,62.04
2023-03-30T03:51:46.739Z,62.15
2023-03-30T03:53:27.758Z,62.03
2023-03-30T03:55:04.659Z,62.13
2023-03-30T03:56:49.954Z,62.06
2023-03-30T03:58:20.970Z,62.52
2023-03-30T03:59:51.061Z,62.37
2023-03-30T04:01:35.810Z,62.67
2023-03-30T04:03:05.457Z,62.95
2023-03-30T04:04:50.263Z,63.04
2023-03-30T04:06:30.796Z,63.04
2023-03-30T04:08:04.534Z,62.98
2023-03-30T04:09:30.917Z,62.96
2023-03-30T04:11:23.433Z,62.91
2023-03-30T04:13:08.733Z,62.84
2023-03-30T04:15:23.596Z,63.02
2023-03-30T04:17:15.501Z,62.88
2023-03-30T04:19:27.887Z,63.12
2023-03-30T04:21:25.231Z,63.00
2023-03-30T04:22:50.123Z,63.04
2023-03-30T04:24:55.225Z,63.27
2023-03-30T04:26:43.824Z,63.27
2023-03-30T04:28:36.285Z,63.05
2023-03-30T04:30:47.902Z,62.86
2023-03-30T04:32:34.660Z,62.91
2023-03-30T04:34:40.838Z,63.04
2023-03-30T04:36:23.214Z,62.91
2023-03-30T04:38:02.597Z,63.08
2023-03-30T04:39:41.671Z,63.31
2023-03-30T04:41:53.863Z,63.35
2023-03-30T04:43:55.176Z,63.62
2023-03-30T04:45:53.924Z,63.61
2023-03-30T04:47:50.271Z,63.67
2023-03-30T04:49:38.831Z,63.84
2023-03-30T04:52:06.657Z,63.36
2023-03-30T04:53:46.921Z,63.54
2023-03-30T04:56:07.476Z,63.53
2023-03-30T04:57:41.767Z,63.48
2023-03-30T05:00:05.701Z,63.51
2023-03-30T05:02:11.660Z,63.78
2023-03-30T05:03:45.156Z,63.83
2023-03-30T05:05:35.201Z,63.89
2023-03-30T05:07:33.897Z,63.90
2023-03-30T05:09:18.170Z,64.03
2023-03-30T05:11:14.877Z,64.06
2023-03-30T05:13:16.038Z,63.82
2023-03-30T05:15:09.770Z,64.06
2023-03-30T05:17:04.448Z,63.76
2023-03-30T05:18:33.396Z,63.89
2023-03-30T05:20:52.948Z,64.27
2023-03-30T05:22:40.776Z,64.20
2023-03-30T05:24:48.480Z,64.38
2023-03-30T05:26:47.371Z,64.60
2023-03-30T05:28:54.086Z,64.78
2023-03-30T05:31:08.803Z,64.98
2023-03-30T05:33:15.014Z,65.10
2023-03-30T05:35:15.084Z,65.04
2023-03-30T05:37:00.042Z,64.78
2023-03-30T05:38:51.507Z,64.88
2023-03-30T05:41:19.272Z,65.10
2023-03-30T05:42:56.633Z,65.28
2023-03-30T05:44:42.348Z,65.50
2023-03-30T05:46:35.779Z,65.37
2023-03-30T05:48:29.077Z,65.88
2023-03-30T05:50:46.629Z,65.72
2023-03-30T05:52:40.384Z,65.77
2023-03-30T05:55:10.537Z,65.84
2023-03-30T05:57:25.647Z,65.49
2023-03-30T05:59:13.544Z,65.66
2023-03-30T06:01:19.316Z,65.87
2023-03-30T06:02:55.374Z,66.01
2023-03-30T06:04:32.579Z,66.04
2023-03-30T06:06:06.144Z,66.35
2023-03-30T06:08:00.205Z,66.43
2023-03-30T06:09:26.645Z,66.35
2023-03-30T06:11:08.640Z,66.02
2023-03-30T06:12:41.101Z,65.58
2023-03-30T06:14:22.052Z,65.82
2023-03-30T06:16:06.725Z,66.10
2023-03-30T06:17:35.675Z,65.98
2023-03-30T06:19:20.767Z,66.02
2023-03-30T06:20:57.471Z,66.20
2023-03-30T06:22:31.955Z,65.92
2023-03-30T06:24:36.574Z,66.00
2023-03-30T06:26:11.197Z,65.68
2023-03-30T06:27:59.833Z,66.01
2023-03-30T06:29:33.179Z,65.93
2023-03-30T06:31:02.707Z,65.98
2023-03-30T06:32:38.770Z,66.12
2023-03-30T06:34:51.085Z,65.27
2023-03-30T06:36:45.267Z,65.27
2023-03-30T06:38:21.404Z,65.53
2023-03-30T06:39:59.142Z,66.02
2023-03-30T06:41:24.071Z,65.87
2023-03-30T06:42:57.056Z,66.07
2023-03-30T06:44:34.969Z,65.52
2023-03-30T06:46:21.152Z,65.55
2023-03-30T06:47:54.259Z,65.35
2023-03-30T06:49:31.215Z,65.59
2023-03-30T06:51:13.003Z,65.22
2023-03-30T06:52:49.191Z,64.94
2023-03-30T06:54:23.432Z,64.98
2023-03-30T06:55:56.804Z,64.95
2023-03-30T06:57:37.818Z,64.82
2023-03-30T06:59:34.320Z,65.19
2023-03-30T07:01:27.190Z,64.46
2023-03-30T07:03:23.116Z,64.71
2023-03-30T07:05:11.624Z,63.98
2023-03-30T07:07:05.563Z,63.99
2023-03-30T07:08:46.482Z,63.96
2023-03-30T07:10:33.463Z,63.96
2023-03-30T07:12:19.906Z,63.73
2023-03-30T07:14:05.444Z,63.54
2023-03-30T07:15:50.723Z,62.90
2023-03-30T07:17:38.361Z,63.59
2023-03-30T07:19:11.853Z,63.44
2023-03-30T07:20:47.983Z,63.45
2023-03-30T07:22:23.138Z,63.46
2023-03-30T07:24:08.410Z,63.30
2023-03-30T07:25:54.355Z,62.90
2023-03-30T07:27:50.086Z,62.66
2023-03-30T07:29:36.949Z,62.80
2023-03-30T07:31:22.803Z,62.03
2023-03-30T07:32:52.093Z,62.19
2023-03-30T07:34:13.696Z,61.82
2023-03-30T07:36:03.547Z,61.51
2023-03-30T07:37:39.465Z,61.10
2023-03-30T07:39:24.375Z,61.00
2023-03-30T07:40:58.402Z,61.18
2023-03-30T07:42:42.042Z,61.09
2023-03-30T07:44:17.783Z,61.35
2023-03-30T07:46:03.111Z,61.21
2023-03-30T07:47:41.066Z,61.17
2023-03-30T07:49:16.716Z,61.05
2023-03-30T07:50:52.623Z,60.72
2023-03-30T07:52:38.916Z,61.07
2023-03-30T07:54:13.738Z,60.83
2023-03-30T07:55:47.564Z,60.84
2023-03-30T07:57:39.458Z,60.34
2023-03-30T07:59:13.601Z,59.83
2023-03-30T08:00:54.638Z,59.89
2023-03-30T08:02:43.271Z,59.79
2023-03-30T08:04:19.111Z,59.56
2023-03-30T08:05:55.355Z,59.21
2023-03-30T08:07:17.843Z,58.92
2023-03-30T08:08:51.077Z,58.70
2023-03-30T08:10:13.571Z,58.48
2023-03-30T08:11:37.561Z,58.32
2023-03-30T08:13:01.629Z,59.10
2023-03-30T08:14:30.732Z,58.28
2023-03-30T08:16:11.657Z,58.02
2023-03-30T08:17:33.733Z,57.56
2023-03-30T08:18:55.782Z,56.71
2023-03-30T08:20:22.555Z,56.60
2023-03-30T08:21:51.554Z,56.52
2023-03-30T08:23:24.674Z,56.60
2023-03-30T08:24:57.202Z,56.58
2023-03-30T08:26:30.922Z,56.46
2023-03-30T08:28:11.947Z,56.57
2023-03-30T08:29:56.336Z,55.81
2023-03-30T08:31:32.861Z,56.39
2023-03-30T08:33:17.768Z,55.97
2023-03-30T08:35:03.291Z,55.02
2023-03-30T08:36:39.016Z,55.57
2023-03-30T08:38:08.213Z,55.15
2023-03-30T08:39:41.704Z,55.54
2023-03-30T08:41:22.332Z,54.95
2023-03-30T08:42:57.840Z,55.57
2023-03-30T08:44:31.134Z,55.17
2023-03-30T08:46:06.387Z,55.25
2023-03-30T08:47:31.183Z,55.35
2023-03-30T08:49:02.537Z,55.74
2023-03-30T08:50:35.897Z,55.19
2023-03-30T08:52:09.182Z,55.49
2023-03-30T08:53:45.136Z,54.75
2023-03-30T08:55:38.669Z,55.58
2023-03-30T08:57:24.004Z,55.33
2023-03-30T08:58:57.543Z,55.11
2023-03-30T09:00:32.197Z,55.34
2023-03-30T09:01:53.783Z,55.18
2023-03-30T09:03:29.890Z,55.09
2023-03-30T09:05:06.217Z,55.55
2023-03-30T09:06:46.985Z,55.80
2023-03-30T09:08:40.551Z,55.82
2023-03-30T09:10:35.411Z,56.17
2023-03-30T09:12:08.654Z,56.70
2023-03-30T09:13:54.848Z,56.70
2023-03-30T09:15:24.000Z,57.23
2023-03-30T09:17:17.757Z,56.70
2023-03-30T09:18:51.017Z,56.99
2023-03-30T09:20:27.817Z,57.35
2023-03-30T09:22:12.802Z,57.33
2023-03-30T09:23:35.985Z,57.38
2023-03-30T09:25:21.543Z,58.01
2023-03-30T09:26:54.916Z,57.58
2023-03-30T09:28:21.296Z,57.27
2023-03-30T09:29:55.790Z,57.72
2023-03-30T09:31:41.035Z,57.98
2023-03-30T09:33:10.382Z,57.65
2023-03-30T09:34:55.422Z,57.43
2023-03-30T09:36:44.299Z,56.81
2023-03-30T09:38:21.489Z,56.20
2023-03-30T09:40:02.599Z,56.50
2023-03-30T09:41:45.376Z,56.45
2023-03-30T09:43:30.484Z,56.70
2023-03-30T09:45:15.496Z,56.37
2023-03-30T09:46:49.988Z,56.07
2023-03-30T09:48:23.545Z,55.79
2023-03-30T09:49:57.158Z,54.94
2023-03-30T09:51:31.518Z,54.68
2023-03-30T09:52:53.699Z,54.49
2023-03-30T09:54:39.128Z,54.89
2023-03-30T09:56:13.068Z,54.94
2023-03-30T09:57:44.687Z,55.04
2023-03-30T09:59:18.201Z,55.06
2023-03-30T10:00:59.147Z,55.04
2023-03-30T10:02:40.718Z,55.88
2023-03-30T10:04:16.215Z,56.48
2023-03-30T10:05:49.998Z,56.61
2023-03-30T10:07:18.868Z,56.48
2023-03-30T10:09:13.401Z,56.15
2023-03-30T10:10:48.848Z,56.18
2023-03-30T10:12:24.874Z,56.43
2023-03-30T10:14:10.210Z,56.47
2023-03-30T10:15:46.089Z,56.35
2023-03-30T10:17:31.018Z,56.62
2023-03-30T10:18:55.710Z,56.68
2023-03-30T10:20:41.408Z,56.46
2023-03-30T10:22:28.153Z,56.48
2023-03-30T10:24:12.768Z,56.23
2023-03-30T10:25:48.735Z,56.20
2023-03-30T10:27:37.391Z,56.55
2023-03-30T10:29:18.119Z,55.85
2023-03-30T10:31:11.490Z,55.54
2023-03-30T10:32:56.572Z,55.94
2023-03-30T10:34:48.886Z,55.34
2023-03-30T10:36:11.340Z,55.75
2023-03-30T10:37:52.118Z,56.03
2023-03-30T10:39:23.402Z,56.03
2023-03-30T10:41:12.410Z,55.44
2023-03-30T10:42:33.887Z,55.40
2023-03-30T10:44:07.181Z,55.18
2023-03-30T10:45:36.557Z,55.25
2023-03-30T10:47:12.265Z,55.43
2023-03-30T10:48:55.407Z,56.10
2023-03-30T10:50:28.791Z,55.75
2023-03-30T10:52:14.054Z,55.91
2023-03-30T10:54:08.512Z,55.72
2023-03-30T10:55:44.112Z,56.11
2023-03-30T10:57:18.069Z,55.69
2023-03-30T10:59:03.241Z,56.06
2023-03-30T11:00:46.611Z,56.69
2023-03-30T11:02:08.705Z,57.18
2023-03-30T11:03:37.808Z,56.29
2023-03-30T11:05:01.937Z,55.47
2023-03-30T11:06:55.419Z,55.02
2023-03-30T11:08:35.998Z,54.56
2023-03-30T11:10:17.565Z,53.97
2023-03-30T11:11:51.122Z,53.83
2023-03-30T11:13:25.087Z,54.27
2023-03-30T11:15:17.999Z,54.32
2023-03-30T11:16:58.662Z,54.63
2023-03-30T11:18:32.619Z,54.93
2023-03-30T11:20:07.051Z,54.94
2023-03-30T11:21:42.890Z,54.79
2023-03-30T11:23:28.393Z,54.78
2023-03-30T11:24:52.040Z,54.46
2023-03-30T11:26:16.742Z,54.96
2023-03-30T11:27:50.367Z,54.96
2023-03-30T11:29:24.226Z,54.52
2023-03-30T11:31:09.724Z,54.49
2023-03-30T11:32:52.616Z,54.18
2023-03-30T11:34:14.121Z,53.91
2023-03-30T11:35:47.146Z,54.07
2023-03-30T11:37:21.000Z,53.59
2023-03-30T11:38:56.535Z,53.58
2023-03-30T11:40:29.562Z,54.08
2023-03-30T11:42:10.919Z,53.93
2023-03-30T11:43:55.991Z,54.15
2023-03-30T11:45:49.393Z,53.88
2023-03-30T11:47:13.869Z,53.67
2023-03-30T11:49:04.935Z,52.92
2023-03-30T11:50:29.834Z,52.61
2023-03-30T11:51:52.654Z,52.86
2023-03-30T11:53:28.114Z,52.49
2023-03-30T11:55:03.669Z,52.11
2023-03-30T11:56:38.672Z,51.78
2023-03-30T11:58:23.678Z,51.77
2023-03-30T12:00:09.471Z,51.91
2023-03-30T12:01:45.561Z,52.47
2023-03-30T12:03:21.513Z,52.03
2023-03-30T12:04:55.126Z,51.79
2023-03-30T12:06:17.281Z,51.92
2023-03-30T12:07:50.821Z,51.81
2023-03-30T12:09:26.739Z,52.27
2023-03-30T12:10:57.996Z,52.43
2023-03-30T12:12:42.225Z,52.50
2023-03-30T12:14:22.784Z,52.64
2023-03-30T12:15:55.836Z,52.47
2023-03-30T12:17:42.029Z,52.43
2023-03-30T12:19:27.458Z,52.51
2023-03-30T12:21:00.914Z,52.81
2023-03-30T12:22:34.864Z,52.92
2023-03-30T12:24:15.644Z,52.99
2023-03-30T12:25:56.432Z,52.87
2023-03-30T12:27:37.291Z,52.75
2023-03-30T12:30:49.957Z,52.73
2023-03-30T12:32:13.837Z,52.68
2023-03-30T12:33:47.148Z,52.62
2023-03-30T12:35:28.170Z,52.90
2023-03-30T12:37:09.941Z,52.33
2023-03-30T12:38:55.360Z,52.80
2023-03-30T12:40:24.475Z,52.91
2023-03-30T12:41:48.729Z,52.88
2023-03-30T12:43:22.021Z,53.10
2023-03-30T12:44:55.477Z,53.65
2023-03-30T12:46:37.548Z,54.12
2023-03-30T12:48:22.718Z,54.97
2023-03-30T12:49:46.947Z,55.24
2023-03-30T12:51:10.943Z,55.47
2023-03-30T12:52:32.905Z,55.68
2023-03-30T12:54:09.012Z,55.87
2023-03-30T12:56:02.723Z,55.99
2023-03-30T12:57:27.055Z,56.27
2023-03-30T12:59:00.682Z,56.62
2023-03-30T13:00:53.846Z,57.02
2023-03-30T13:02:23.027Z,57.05
2023-03-30T13:03:57.833Z,56.95
2023-03-30T13:05:19.910Z,57.48
2023-03-30T13:06:53.314Z,57.16
2023-03-30T13:08:29.384Z,57.18
2023-03-30T13:09:51.427Z,57.21
2023-03-30T13:11:13.405Z,56.78
2023-03-30T13:12:37.900Z,57.00
2023-03-30T13:14:02.160Z,56.99
2023-03-30T13:15:23.942Z,56.97
2023-03-30T13:16:45.762Z,56.98
2023-03-30T13:18:21.874Z,56.85
2023-03-30T13:20:02.651Z,56.98
2023-03-30T13:21:36.301Z,57.00
2023-03-30T13:23:15.060Z,56.99
2023-03-30T13:24:51.186Z,56.79
2023-03-30T13:26:35.469Z,56.66
2023-03-30T13:28:20.753Z,55.89
2023-03-30T13:29:42.174Z,55.69
2023-03-30T13:31:26.983Z,55.51
2023-03-30T13:32:50.619Z,55.16
2023-03-30T13:34:24.303Z,55.32
2023-03-30T13:35:48.035Z,55.53
2023-03-30T13:37:10.140Z,55.49
2023-03-30T13:38:51.628Z,55.44
2023-03-30T13:40:37.950Z,55.37
2023-03-30T13:42:15.447Z,55.73
2023-03-30T13:43:50.372Z,55.78
2023-03-30T13:45:24.179Z,55.58
2023-03-30T13:46:59.711Z,55.99
2023-03-30T13:48:52.957Z,56.24
2023-03-30T13:50:26.836Z,56.33
2023-03-30T13:52:02.088Z,56.48
2023-03-30T13:53:28.445Z,56.40
2023-03-30T13:54:57.928Z,56.45
2023-03-30T13:56:22.003Z,56.92
2023-03-30T13:57:44.705Z,57.19
2023-03-30T13:59:06.632Z,57.40
2023-03-30T14:00:48.644Z,57.76
2023-03-30T14:02:12.789Z,58.18
2023-03-30T14:03:54.080Z,58.39
2023-03-30T14:05:16.034Z,58.79
2023-03-30T14:06:51.588Z,58.40
2023-03-30T14:08:15.503Z,58.83
2023-03-30T14:10:00.488Z,59.92
2023-03-30T14:11:33.970Z,61.10
2023-03-30T14:12:55.629Z,61.61
2023-03-30T14:14:41.760Z,61.89
2023-03-30T14:16:03.888Z,62.57
2023-03-30T14:17:28.595Z,63.39
2023-03-30T14:18:50.640Z,64.13
2023-03-30T14:20:20.061Z,65.17
2023-03-30T14:22:05.246Z,65.92
2023-03-30T14:23:32.609Z,66.78
2023-03-30T14:24:56.759Z,67.01
2023-03-30T14:26:20.697Z,67.04
2023-03-30T14:27:44.655Z,67.62
2023-03-30T14:29:11.297Z,67.96
2023-03-30T14:30:34.995Z,67.79
2023-03-30T14:32:07.400Z,67.33
2023-03-30T14:33:42.851Z,67.69
2023-03-30T14:35:12.375Z,68.17
2023-03-30T14:36:33.792Z,68.62
2023-03-30T14:37:57.178Z,69.42
2023-03-30T14:39:44.439Z,69.64
2023-03-30T14:41:17.941Z,70.49
2023-03-30T14:43:02.710Z,70.08
2023-03-30T14:44:52.188Z,70.68
2023-03-30T14:46:26.238Z,71.06
2023-03-30T14:48:07.978Z,70.86
2023-03-30T14:49:30.278Z,71.31
2023-03-30T14:50:54.156Z,71.11
2023-03-30T14:52:30.021Z,70.93
2023-03-30T14:53:59.015Z,70.86
2023-03-30T14:55:32.786Z,70.59
2023-03-30T14:57:02.108Z,70.73
2023-03-30T14:58:35.552Z,70.27
2023-03-30T14:59:57.273Z,70.16
2023-03-30T15:01:23.574Z,70.69
2023-03-30T15:02:45.533Z,70.05
2023-03-30T15:04:08.011Z,70.10
2023-03-30T15:05:30.077Z,70.05
2023-03-30T15:07:14.825Z,69.99
2023-03-30T15:08:53.400Z,69.28
2023-03-30T15:10:15.315Z,69.54
2023-03-30T15:11:36.885Z,69.12
2023-03-30T15:12:58.722Z,69.12
2023-03-30T15:14:20.947Z,69.16
2023-03-30T15:16:03.484Z,68.57
2023-03-30T15:17:28.198Z,68.37
2023-03-30T15:19:13.353Z,68.58
2023-03-30T15:20:46.606Z,68.24
2023-03-30T15:22:22.319Z,68.20
2023-03-30T15:23:58.516Z,68.25
2023-03-30T15:25:51.788Z,67.96
2023-03-30T15:27:37.107Z,68.12
2023-03-30T15:29:06.157Z,67.53
2023-03-30T15:30:51.213Z,67.77
2023-03-30T15:32:36.728Z,67.43
2023-03-30T15:34:12.097Z,67.24
2023-03-30T15:35:58.060Z,67.27
2023-03-30T15:37:52.621Z,67.46
2023-03-30T15:39:46.196Z,67.28
2023-03-30T15:41:31.522Z,66.78
2023-03-30T15:43:16.330Z,66.88
2023-03-30T15:44:50.645Z,66.92
2023-03-30T15:46:40.891Z,66.55
2023-03-30T15:48:16.719Z,66.21
2023-03-30T15:49:50.597Z,66.33
2023-03-30T15:51:36.142Z,66.49
2023-03-30T15:53:09.813Z,66.75
2023-03-30T15:54:50.513Z,66.68
2023-03-30T15:56:32.018Z,66.85
2023-03-30T15:58:03.969Z,66.67
2023-03-30T15:59:49.293Z,66.68
2023-03-30T16:01:28.000Z,66.69
2023-03-30T16:03:02.049Z,66.06
2023-03-30T16:04:36.095Z,66.29
2023-03-30T16:06:12.080Z,66.38
2023-03-30T16:07:38.556Z,66.68
2023-03-30T16:09:23.068Z,66.98
2023-03-30T16:11:04.058Z,67.01
2023-03-30T16:12:57.545Z,66.91
2023-03-30T16:14:30.940Z,66.64
2023-03-30T16:16:16.179Z,66.62
2023-03-30T16:17:57.010Z,66.36
2023-03-30T16:19:38.655Z,66.50
2023-03-30T16:21:24.376Z,66.52
2023-03-30T16:23:09.721Z,66.51
2023-03-30T16:24:43.214Z,66.73
2023-03-30T16:26:16.887Z,66.75
2023-03-30T16:28:11.591Z,67.54
2023-03-30T16:29:33.260Z,66.94
2023-03-30T16:31:06.927Z,66.67
2023-03-30T16:32:40.431Z,67.02
2023-03-30T16:34:01.798Z,67.03
2023-03-30T16:35:42.259Z,66.70
2023-03-30T16:37:11.815Z,66.91
2023-03-30T16:38:47.168Z,66.91
2023-03-30T16:40:21.012Z,66.80
2023-03-30T16:41:55.049Z,67.24
2023-03-30T16:43:25.214Z,67.23
2023-03-30T16:44:46.793Z,67.49
2023-03-30T16:46:20.403Z,67.29
2023-03-30T16:47:42.811Z,67.00
2023-03-30T16:49:17.038Z,66.85
2023-03-30T16:51:02.887Z,66.82
2023-03-30T16:52:35.077Z,66.96
2023-03-30T16:54:30.335Z,67.17
2023-03-30T16:55:57.961Z,67.26
2023-03-30T16:57:20.052Z,67.31
2023-03-30T16:58:51.559Z,67.40
2023-03-30T17:00:36.964Z,67.28
2023-03-30T17:02:08.459Z,67.49
2023-03-30T17:03:32.837Z,67.46
2023-03-30T17:05:17.960Z,67.17
2023-03-30T17:06:39.878Z,67.10
2023-03-30T17:08:13.039Z,67.27
2023-03-30T17:09:37.629Z,67.14
2023-03-30T17:11:13.327Z,67.22
2023-03-30T17:12:59.565Z,67.42
2023-03-30T17:14:53.453Z,67.65
2023-03-30T17:16:29.371Z,68.03
2023-03-30T17:18:14.454Z,68.20
2023-03-30T17:19:59.490Z,68.76
2023-03-30T17:23:42.835Z,69.79
2023-03-30T17:25:28.444Z,70.52
2023-03-30T17:27:13.387Z,71.00
2023-03-30T17:28:42.089Z,71.37
2023-03-30T17:30:16.039Z,71.84
2023-03-30T17:31:56.913Z,71.44
2023-03-30T17:33:19.263Z,71.35
2023-03-30T17:34:59.828Z,71.76
2023-03-30T17:36:21.789Z,71.49
2023-03-30T17:38:07.899Z,71.81
2023-03-30T17:39:57.473Z,71.91
2023-03-30T17:41:46.472Z,72.10
2023-03-30T17:43:20.371Z,72.01
2023-03-30T17:45:05.195Z,71.98
2023-03-30T17:46:39.069Z,71.85
2023-03-30T17:48:08.405Z,71.37
2023-03-30T17:49:42.004Z,71.40
2023-03-30T17:51:31.583Z,71.38
2023-03-30T17:53:17.009Z,71.27
2023-03-30T17:55:11.538Z,71.19
2023-03-30T17:56:53.679Z,71.67
2023-03-30T17:58:29.172Z,71.71
2023-03-30T18:00:14.437Z,71.22
2023-03-30T18:01:55.855Z,70.94
2023-03-30T18:03:41.677Z,70.90
2023-03-30T18:05:23.238Z,70.80
2023-03-30T18:07:16.629Z,71.19
2023-03-30T18:08:59.469Z,71.28
2023-03-30T18:10:53.467Z,70.99
2023-03-30T18:12:23.174Z,71.05
2023-03-30T18:14:13.459Z,71.02
2023-03-30T18:15:43.389Z,71.18
2023-03-30T18:17:17.061Z,71.69
2023-03-30T18:18:45.522Z,71.76
2023-03-30T18:20:19.196Z,71.79
2023-03-30T18:21:53.235Z,72.54
2023-03-30T18:23:26.980Z,72.83
2023-03-30T18:24:50.718Z,73.11
2023-03-30T18:26:35.800Z,73.33
2023-03-30T18:28:08.004Z,73.95
2023-03-30T18:29:33.843Z,73.61
2023-03-30T18:31:03.218Z,73.33
2023-03-30T18:32:46.563Z,73.79
2023-03-30T18:34:30.330Z,73.75
2023-03-30T18:36:13.293Z,73.93
2023-03-30T18:37:43.246Z,73.96
2023-03-30T18:39:30.240Z,74.14
2023-03-30T18:41:05.193Z,73.64
2023-03-30T18:42:58.608Z,73.87
2023-03-30T18:44:28.189Z,73.99
2023-03-30T18:45:51.953Z,73.75
2023-03-30T18:47:13.741Z,73.89
2023-03-30T18:49:07.557Z,74.19
2023-03-30T18:50:53.257Z,74.43
2023-03-30T18:52:34.880Z,75.03
2023-03-30T18:54:04.108Z,75.39
2023-03-30T18:55:28.293Z,75.81
2023-03-30T18:56:52.362Z,75.74
2023-03-30T18:58:26.365Z,75.86
2023-03-30T19:00:02.689Z,75.86
2023-03-30T19:01:25.510Z,76.36
2023-03-30T19:03:14.300Z,76.68
2023-03-30T19:05:08.557Z,76.71
2023-03-30T19:06:38.194Z,76.97
2023-03-30T19:08:07.322Z,77.22
2023-03-30T19:09:50.510Z,77.25
2023-03-30T19:11:20.156Z,77.48
2023-03-30T19:12:54.856Z,77.37
2023-03-30T19:14:29.028Z,77.82
2023-03-30T19:16:05.994Z,77.96
2023-03-30T19:17:31.013Z,78.25
2023-03-30T19:19:15.824Z,78.20
2023-03-30T19:21:05.674Z,78.71
2023-03-30T19:22:37.587Z,78.60
2023-03-30T19:24:13.853Z,78.38
2023-03-30T19:25:42.831Z,78.59
2023-03-30T19:27:07.658Z,78.27
2023-03-30T19:28:48.731Z,78.62
2023-03-30T19:30:24.403Z,78.78
2023-03-30T19:31:53.783Z,78.92
2023-03-30T19:33:16.364Z,78.98
2023-03-30T19:34:59.508Z,79.11
2023-03-30T19:36:40.991Z,78.96
2023-03-30T19:38:26.141Z,79.34
2023-03-30T19:40:11.486Z,78.98
2023-03-30T19:41:47.293Z,79.26
2023-03-30T19:43:16.448Z,79.43
2023-03-30T19:45:01.420Z,79.54
2023-03-30T19:46:23.875Z,80.02
2023-03-30T19:47:45.549Z,80.14
2023-03-30T19:49:21.765Z,79.98
2023-03-30T19:50:51.307Z,80.05
2023-03-30T19:52:26.924Z,80.01
2023-03-30T19:54:02.718Z,80.35
2023-03-30T19:55:55.520Z,80.07
2023-03-30T19:57:19.386Z,80.43
2023-03-30T19:59:04.585Z,80.38
2023-03-30T20:02:28.353Z,80.61
2023-03-30T20:04:01.807Z,80.93
2023-03-30T20:05:55.084Z,80.93
2023-03-30T20:07:19.461Z,80.60
2023-03-30T20:08:41.082Z,80.79
2023-03-30T20:10:14.300Z,80.74
2023-03-30T20:11:47.759Z,81.14
2023-03-30T20:13:35.038Z,81.00
2023-03-30T20:15:11.028Z,81.23
2023-03-30T20:16:35.167Z,81.11
2023-03-30T20:17:59.344Z,81.09
2023-03-30T20:19:34.490Z,81.28
2023-03-30T20:20:58.593Z,81.06
2023-03-30T20:22:22.410Z,81.13
2023-03-30T20:23:43.916Z,80.65
2023-03-30T20:25:16.140Z,81.06
2023-03-30T20:27:01.093Z,81.25
2023-03-30T20:28:45.853Z,81.33
2023-03-30T20:30:21.566Z,81.03
2023-03-30T20:31:55.938Z,81.33
2023-03-30T20:33:46.617Z,81.36
2023-03-30T20:35:37.376Z,81.16
2023-03-30T20:37:11.247Z,81.31
2023-03-30T20:38:53.105Z,80.92
2023-03-30T20:40:41.206Z,80.88
2023-03-30T20:42:08.227Z,81.09
2023-03-30T20:43:53.276Z,81.17
2023-03-30T20:45:26.199Z,81.09
2023-03-30T20:47:09.804Z,81.16
2023-03-30T20:48:50.770Z,81.17
2023-03-30T20:50:12.652Z,80.94
2023-03-30T20:51:46.060Z,81.24
2023-03-30T20:53:15.135Z,80.65
2023-03-30T20:54:37.663Z,80.91
2023-03-30T20:56:18.348Z,80.60
2023-03-30T20:57:40.337Z,80.66
2023-03-30T20:59:14.226Z,80.24
2023-03-30T21:00:36.250Z,80.25
2023-03-30T21:02:12.685Z,80.01
2023-03-30T21:03:58.177Z,80.11
2023-03-30T21:05:38.953Z,79.88
2023-03-30T21:07:14.760Z,80.21
2023-03-30T21:08:49.264Z,80.18
2023-03-30T21:10:18.715Z,79.70
2023-03-30T21:11:52.068Z,79.67
2023-03-30T21:13:25.575Z,79.22
2023-03-30T21:15:01.154Z,79.53
2023-03-30T21:16:46.498Z,79.56